createdAt,value
2019-02-07T00:02:04.447Z,5.49
2019-02-07T00:04:33.635Z,5.52
2019-02-07T00:07:02.842Z,5.53
2019-02-07T00:09:34.107Z,5.55
2019-02-07T00:12:03.588Z,5.33
2019-02-07T00:14:39.510Z,5.34
2019-02-07T00:17:04.118Z,5.30
2019-02-07T00:19:33.282Z,5.34
2019-02-07T00:22:03.030Z,5.35
2019-02-07T00:24:42.493Z,5.29
2019-02-07T00:27:04.880Z,5.26
2019-02-07T00:29:34.542Z,5.34
2019-02-07T00:32:04.269Z,5.30
2019-02-07T00:34:33.665Z,5.31
2019-02-07T00:37:03.416Z,5.27
2019-02-07T00:39:32.996Z,5.26
2019-02-07T00:42:02.866Z,5.19
2019-02-07T00:44:32.381Z,5.22
2019-02-07T00:47:01.848Z,5.30
2019-02-07T00:49:31.617Z,5.21
2019-02-07T00:52:01.057Z,5.24
2019-02-07T00:54:30.800Z,5.23
2019-02-07T00:57:00.915Z,5.18
2019-02-07T00:59:30.135Z,5.09
2019-02-07T01:01:59.320Z,5.03
2019-02-07T01:04:28.786Z,5.03
2019-02-07T01:06:58.512Z,4.96
2019-02-07T01:09:28.350Z,4.93
2019-02-07T01:11:58.273Z,4.93
2019-02-07T01:14:27.469Z,4.90
2019-02-07T01:16:56.657Z,4.88
2019-02-07T01:19:26.105Z,4.89
2019-02-07T01:21:55.280Z,4.91
2019-02-07T01:24:24.742Z,4.93
2019-02-07T01:26:54.505Z,4.93
2019-02-07T01:29:24.038Z,4.92
2019-02-07T01:31:53.824Z,4.94
2019-02-07T01:34:23.629Z,4.95
2019-02-07T01:36:53.053Z,4.98
2019-02-07T01:39:22.661Z,4.98
2019-02-07T01:41:52.123Z,4.97
2019-02-07T01:44:21.319Z,4.91
2019-02-07T01:46:50.486Z,4.90
2019-02-07T01:49:19.689Z,4.85
2019-02-07T01:51:49.142Z,4.88
2019-02-07T01:54:18.432Z,4.88
2019-02-07T01:56:47.606Z,4.91
2019-02-07T01:59:16.806Z,4.89
2019-02-07T02:01:46.375Z,4.90
2019-02-07T02:04:15.568Z,4.90
2019-02-07T02:06:44.752Z,4.87
2019-02-07T02:09:14.044Z,4.82
2019-02-07T02:11:43.484Z,4.75
2019-02-07T02:14:13.057Z,4.81
2019-02-07T02:16:42.220Z,4.76
2019-02-07T02:19:11.433Z,4.82
2019-02-07T02:21:40.631Z,4.85
2019-02-07T02:24:10.189Z,4.84
2019-02-07T02:26:39.353Z,4.88
2019-02-07T02:29:08.658Z,4.85
2019-02-07T02:31:38.175Z,4.87
2019-02-07T02:34:07.754Z,4.90
2019-02-07T02:36:37.288Z,4.96
2019-02-07T02:39:47.864Z,5.02
2019-02-07T02:42:17.725Z,5.05
2019-02-07T02:44:47.286Z,5.02
2019-02-07T02:47:16.470Z,5.00
2019-02-07T02:49:45.663Z,5.00
2019-02-07T02:52:14.876Z,5.04
2019-02-07T02:55:03.259Z,5.04
2019-02-07T02:57:32.699Z,5.08
2019-02-07T03:00:01.994Z,5.11
2019-02-07T03:02:50.080Z,5.08
2019-02-07T03:05:38.497Z,5.08
2019-02-07T03:08:26.864Z,5.10
2019-02-07T03:11:15.551Z,5.00
2019-02-07T03:14:03.640Z,5.03
2019-02-07T03:16:51.766Z,5.01
2019-02-07T03:19:30.175Z,5.00
2019-02-07T03:22:18.571Z,5.05
2019-02-07T03:25:06.773Z,5.02
2019-02-07T03:27:54.883Z,5.06
2019-02-07T03:30:43.012Z,5.13
2019-02-07T03:33:31.711Z,5.16
2019-02-07T03:36:20.102Z,5.15
2019-02-07T03:39:08.470Z,5.23
2019-02-07T03:41:56.643Z,5.22
2019-02-07T03:44:45.281Z,5.17
2019-02-07T03:47:33.702Z,5.10
2019-02-07T03:50:22.327Z,5.06
2019-02-07T03:53:10.776Z,4.99
2019-02-07T03:55:58.891Z,5.16
2019-02-07T03:58:47.023Z,5.12
2019-02-07T04:01:35.407Z,5.17
2019-02-07T04:07:25.396Z,5.30
2019-02-07T04:10:13.494Z,5.36
2019-02-07T04:13:01.619Z,5.39
2019-02-07T04:15:49.733Z,5.35
2019-02-07T04:18:30.486Z,5.34
2019-02-07T04:21:18.770Z,5.32
2019-02-07T04:23:57.423Z,5.31
2019-02-07T04:32:27.185Z,5.17
2019-02-07T05:33:47.143Z,5.97
2019-02-07T06:09:09.385Z,5.92
2019-02-07T06:11:57.753Z,6.04
2019-02-07T06:14:46.170Z,5.93
2019-02-07T06:17:34.537Z,6.22
2019-02-07T06:20:24.425Z,6.21
2019-02-07T06:23:12.842Z,6.36
2019-02-07T06:26:00.979Z,6.47
2019-02-07T06:28:49.289Z,6.52
2019-02-07T06:31:38.697Z,6.49
2019-02-07T06:34:29.032Z,6.45
2019-02-07T06:37:16.949Z,6.46
2019-02-07T06:40:05.646Z,6.49
2019-02-07T06:42:54.069Z,6.46
2019-02-07T06:45:42.476Z,6.44
2019-02-07T08:22:08.666Z,6.89
2019-02-07T08:24:45.104Z,7.00
2019-02-07T08:27:33.957Z,6.98
2019-02-07T08:47:58.665Z,7.27
2019-02-07T09:44:33.416Z,7.95
2019-02-07T09:47:13.680Z,8.10
2019-02-07T10:34:31.253Z,8.75
2019-02-07T10:40:36.449Z,8.97
2019-02-07T10:46:23.460Z,9.18
2019-02-07T10:49:03.531Z,9.26
2019-02-07T10:51:52.182Z,9.28
2019-02-07T11:03:37.049Z,9.34
2019-02-07T11:06:25.496Z,9.30
2019-02-07T11:12:12.169Z,9.28
2019-02-07T12:23:13.377Z,9.54
2019-02-07T12:25:51.218Z,9.59
2019-02-07T12:28:30.806Z,9.66
2019-02-07T12:31:19.315Z,9.65
2019-02-07T12:34:07.461Z,9.62
2019-02-07T12:36:56.462Z,9.63
2019-02-07T12:39:44.593Z,9.79
2019-02-07T12:42:33.036Z,9.79
2019-02-07T12:45:21.457Z,9.88
2019-02-07T12:48:10.002Z,9.86
2019-02-07T12:50:58.767Z,9.92
2019-02-07T12:53:47.301Z,9.93
2019-02-07T12:56:37.152Z,9.99
2019-02-07T12:59:46.049Z,9.98
2019-02-07T13:02:34.211Z,9.99
2019-02-07T13:05:44.955Z,10.04
2019-02-07T13:08:33.383Z,9.95
2019-02-07T13:11:22.115Z,9.99
2019-02-07T13:14:10.556Z,10.09
2019-02-07T13:16:58.683Z,10.20
2019-02-07T13:19:47.122Z,10.22
2019-02-07T13:22:35.291Z,10.26
2019-02-07T13:28:32.526Z,10.16
2019-02-07T13:31:20.697Z,10.20
2019-02-07T13:34:09.370Z,10.08
2019-02-07T13:45:28.038Z,10.22
2019-02-07T13:59:27.073Z,10.81
2019-02-07T14:05:12.798Z,11.14
2019-02-07T14:08:01.430Z,11.18
2019-02-07T14:10:38.563Z,11.25
2019-02-07T14:13:27.437Z,11.70
2019-02-07T14:16:15.708Z,11.66
2019-02-07T14:18:56.600Z,12.18
2019-02-07T14:21:45.038Z,11.24
2019-02-07T14:24:33.489Z,11.29
2019-02-07T14:27:22.620Z,11.14
2019-02-07T14:30:11.063Z,10.46
2019-02-07T14:33:00.057Z,10.34
2019-02-07T14:35:48.542Z,10.29
2019-02-07T14:38:36.732Z,10.22
2019-02-07T14:41:25.605Z,10.25
2019-02-07T14:44:02.557Z,11.51
2019-02-07T14:46:51.277Z,10.87
2019-02-07T14:49:20.792Z,11.09
2019-02-07T14:51:50.257Z,11.50
2019-02-07T14:54:19.493Z,11.71
2019-02-07T14:56:48.766Z,11.17
2019-02-07T15:02:52.648Z,10.51
2019-02-07T15:05:22.558Z,10.31
2019-02-07T15:07:52.366Z,9.92
2019-02-07T15:10:21.884Z,9.87
2019-02-07T15:12:51.364Z,9.98
2019-02-07T15:15:21.778Z,9.90
2019-02-07T15:17:50.975Z,9.88
2019-02-07T15:20:26.164Z,9.79
2019-02-07T15:25:27.374Z,9.70
2019-02-07T15:27:57.206Z,9.61
2019-02-07T15:30:27.072Z,9.54
2019-02-07T15:32:56.576Z,9.50
2019-02-07T15:35:29.566Z,9.49
2019-02-07T15:37:59.449Z,9.47
2019-02-07T15:40:28.986Z,9.41
2019-02-07T15:42:59.107Z,9.42
2019-02-07T15:45:28.877Z,9.44
2019-02-07T15:47:58.834Z,9.38
2019-02-07T15:50:37.695Z,9.34
2019-02-07T15:55:54.451Z,9.28
2019-02-07T16:07:02.324Z,8.93
2019-02-07T16:09:31.576Z,8.96
2019-02-07T16:12:00.814Z,8.88
2019-02-07T16:14:50.820Z,8.90
2019-02-07T16:17:21.740Z,8.96
2019-02-07T16:19:53.621Z,8.98
2019-02-07T16:22:24.294Z,8.88
2019-02-07T16:24:54.781Z,8.86
2019-02-07T16:27:25.185Z,8.73
2019-02-07T16:29:54.857Z,8.72
2019-02-07T16:41:13.635Z,8.37
2019-02-07T16:43:43.199Z,8.37
2019-02-07T16:46:12.417Z,8.31
2019-02-07T16:48:43.809Z,8.16
2019-02-07T16:51:13.755Z,8.14
2019-02-07T17:28:37.872Z,7.02
2019-02-07T17:31:07.347Z,6.91
2019-02-07T17:33:37.395Z,6.89
2019-02-07T17:36:06.949Z,6.92
2019-02-07T17:38:36.983Z,6.92
2019-02-07T17:41:07.873Z,6.93
2019-02-07T17:43:38.534Z,7.09
2019-02-07T17:46:26.835Z,7.14
2019-02-07T17:51:45.262Z,7.04
2019-02-07T17:54:18.797Z,6.96
2019-02-07T17:57:05.585Z,7.19
2019-02-07T17:59:35.057Z,7.21
2019-02-07T18:02:23.625Z,7.21
2019-02-07T18:04:52.833Z,7.11
2019-02-07T18:07:22.688Z,7.03
2019-02-07T18:09:51.884Z,6.91
2019-02-07T18:12:21.112Z,6.93
2019-02-07T18:14:50.732Z,6.78
2019-02-07T18:17:20.298Z,6.87
2019-02-07T18:19:50.218Z,6.90
2019-02-07T18:22:19.693Z,6.77
2019-02-07T18:24:48.929Z,6.88
2019-02-07T18:27:18.156Z,6.84
2019-02-07T18:29:47.369Z,6.76
2019-02-07T18:32:16.902Z,6.63
2019-02-07T18:34:47.185Z,6.48
2019-02-07T18:37:16.797Z,6.39
2019-02-07T18:39:46.287Z,6.29
2019-02-07T18:42:15.509Z,6.22
2019-02-07T18:44:44.745Z,6.11
2019-02-07T18:47:14.346Z,5.92
2019-02-07T18:49:43.833Z,5.85
2019-02-07T18:52:14.782Z,5.96
2019-02-07T18:54:44.131Z,5.89
2019-02-07T18:57:13.608Z,5.87
2019-02-07T18:59:43.528Z,5.87
2019-02-07T19:02:13.255Z,6.05
2019-02-07T19:04:43.033Z,6.14
2019-02-07T19:07:12.513Z,6.14
2019-02-07T19:09:42.139Z,6.33
2019-02-07T19:12:14.588Z,6.27
2019-02-07T19:14:50.032Z,6.06
2019-02-07T19:17:19.610Z,6.10
2019-02-07T19:22:44.268Z,6.02
2019-02-07T19:25:13.695Z,6.01
2019-02-07T19:27:42.993Z,6.06
2019-02-07T19:30:16.387Z,6.03
2019-02-07T19:32:45.895Z,6.07
2019-02-07T19:35:34.506Z,6.15
2019-02-07T19:38:03.771Z,6.18
2019-02-07T19:40:33.542Z,6.21
2019-02-07T19:43:23.257Z,6.17
2019-02-07T19:49:06.296Z,6.11
2019-02-07T19:51:54.776Z,6.04
2019-02-07T19:54:24.323Z,5.99
2019-02-07T19:56:55.365Z,5.99
2019-02-07T19:59:25.141Z,5.98
2019-02-07T20:01:55.088Z,5.96
2019-02-07T20:04:24.446Z,5.99
2019-02-07T20:06:54.312Z,6.07
2019-02-07T20:09:23.966Z,6.17
2019-02-07T20:11:53.755Z,6.15
2019-02-07T20:30:37.539Z,6.13
2019-02-07T20:38:45.023Z,5.98
2019-02-07T20:41:14.552Z,5.91
2019-02-07T20:46:33.225Z,5.84
2019-02-07T20:49:23.157Z,5.76
2019-02-07T20:51:52.380Z,5.75
2019-02-07T20:54:21.578Z,5.62
2019-02-07T20:56:51.460Z,5.52
2019-02-07T20:59:20.947Z,5.43
2019-02-07T21:04:46.014Z,5.36
2019-02-07T21:07:15.251Z,5.41
2019-02-07T21:09:44.744Z,5.30
2019-02-07T21:12:14.235Z,5.04
2019-02-07T21:14:43.468Z,4.86
2019-02-07T21:17:12.695Z,4.79
2019-02-07T21:19:42.572Z,4.60
2019-02-07T21:22:11.796Z,4.69
2019-02-07T21:25:02.065Z,4.91
2019-02-07T21:27:50.663Z,4.88
2019-02-07T21:30:23.991Z,4.93
2019-02-07T21:32:53.919Z,5.07
2019-02-07T21:51:58.404Z,5.18
2019-02-07T21:54:28.442Z,5.12
2019-02-07T21:56:58.276Z,5.11
2019-02-07T21:59:27.911Z,5.24
2019-02-07T22:01:57.459Z,5.23
2019-02-07T22:04:27.080Z,5.13
2019-02-07T22:06:57.020Z,5.07
2019-02-07T22:09:26.478Z,4.94
2019-02-07T22:11:55.728Z,5.06
2019-02-07T22:14:25.172Z,5.05
2019-02-07T22:16:54.421Z,5.17
2019-02-07T22:19:23.618Z,5.15
2019-02-07T22:21:53.391Z,5.11
2019-02-07T22:24:22.876Z,5.03
2019-02-07T22:26:52.078Z,5.04
2019-02-07T22:29:21.471Z,5.00
2019-02-07T22:31:50.958Z,4.97
2019-02-07T22:34:20.177Z,4.95
2019-02-07T22:36:49.634Z,4.97
2019-02-07T22:39:19.094Z,5.00
2019-02-07T22:41:48.355Z,5.06
2019-02-07T22:44:18.418Z,5.08
2019-02-07T22:46:49.849Z,5.10
2019-02-07T22:49:19.072Z,5.00
2019-02-07T22:51:48.566Z,4.82
2019-02-07T22:54:18.061Z,4.85
2019-02-07T22:56:47.557Z,5.01
2019-02-07T22:59:18.529Z,5.00
2019-02-07T23:04:48.372Z,4.92
2019-02-07T23:07:17.855Z,5.02
2019-02-07T23:09:47.048Z,5.13
2019-02-07T23:12:16.273Z,5.13
2019-02-07T23:14:45.465Z,5.08
2019-02-07T23:17:14.665Z,5.07
2019-02-07T23:19:43.914Z,5.23
2019-02-07T23:22:13.399Z,5.32
2019-02-07T23:24:42.612Z,5.28
2019-02-07T23:27:11.820Z,5.32
2019-02-07T23:29:41.696Z,5.28
2019-02-07T23:32:10.998Z,5.27
2019-02-07T23:34:40.502Z,5.20
2019-02-07T23:37:11.413Z,5.17
2019-02-07T23:39:41.202Z,4.89
2019-02-07T23:42:10.752Z,4.89
2019-02-07T23:44:39.979Z,4.96
2019-02-07T23:47:09.171Z,4.89
2019-02-07T23:49:38.663Z,4.84
2019-02-07T23:52:08.254Z,4.83
2019-02-07T23:54:37.460Z,4.69
2019-02-07T23:57:07.047Z,4.68
2019-02-07T23:59:44.320Z,4.60
